^^
Station Historical Data
Daily Summary for November 2, 2017 Units:  English    Metric   Both
« Previous Day
Next Day »
Daily Weekly Monthly Yearly Custom
  High: Low: Average:
Temperature: 72.5 °F 53.5 °F 62.5 °F
Dew Point: 63.1 °F 49.9 °F 58.4 °F
Humidity: 97% 70% 87%
Wind Speed: 6.0mph 0.0mph 1mph
Wind Gust: 14.0mph - -
Wind- - SSW
Pressure: 30.30 in 30.18 in -
Precipitation: 0.00 in    
Historical Graphs
 
 
Tabular Data for November 2, 2017
Time Temperature Dew Point Pressure Wind Wind Speed Wind Gust Humidity Rainfall Rate (Hourly) Conditions
00:09 53.5 °F 50.0 °F 30.30 in Calm   2.0 mph 88% 0.00 in BKN
00:20 53.7 °F 49.9 °F 30.30 in Calm   2.0 mph 87% 0.00 in BKN
00:30 54.0 °F 50.2 °F 30.30 in Calm   3.0 mph 87% 0.00 in BKN
00:40 54.2 °F 50.4 °F 30.30 in Calm   1.0 mph 87% 0.00 in BKN
00:50 54.2 °F 50.7 °F 30.30 in Calm   1.0 mph 88% 0.00 in BKN
01:00 54.6 °F 51.1 °F 30.29 in Calm   1.0 mph 88% 0.00 in BKN
01:10 54.7 °F 51.5 °F 30.29 in Calm   1.0 mph 89% 0.00 in BKN
01:19 55.0 °F 52.1 °F 30.29 in NNE 1.0 mph 3.0 mph 90% 0.00 in BKN
01:29 55.3 °F 52.4 °F 30.29 in Calm   4.0 mph 90% 0.00 in BKN
01:40 55.2 °F 52.3 °F 30.29 in Calm   1.0 mph 90% 0.00 in BKN
01:49 55.4 °F 52.8 °F 30.29 in Calm   1.0 mph 91% 0.00 in BKN
02:00 55.7 °F 53.1 °F 30.29 in Calm   2.0 mph 91% 0.00 in BKN
02:10 56.1 °F 53.8 °F 30.29 in Calm   3.0 mph 92% 0.00 in BKN
02:20 56.1 °F 53.5 °F 30.29 in Calm   1.0 mph 91% 0.00 in BKN
02:30 56.1 °F 53.8 °F 30.28 in Calm   1.0 mph 92% 0.00 in BKN
02:40 56.3 °F 54.0 °F 30.28 in Calm   1.0 mph 92% 0.00 in BKN
02:49 56.6 °F 54.6 °F 30.27 in Calm   1.0 mph 93% 0.00 in BKN
03:00 56.6 °F 54.6 °F 30.27 in Calm   3.0 mph 93% 0.00 in BKN
03:10 56.6 °F 54.6 °F 30.27 in Calm   2.0 mph 93% 0.00 in OVC
03:19 56.7 °F 55.0 °F 30.27 in Calm   1.0 mph 94% 0.00 in OVC
03:29 57.1 °F 55.4 °F 30.27 in Calm   1.0 mph 94% 0.00 in OVC
03:40 57.2 °F 55.5 °F 30.27 in Calm   1.0 mph 94% 0.00 in OVC
03:49 57.2 °F 55.5 °F 30.27 in Calm     94% 0.00 in OVC
03:59 57.1 °F 55.7 °F 30.27 in Calm   1.0 mph 95% 0.00 in OVC
04:09 57.2 °F 55.8 °F 30.27 in Calm     95% 0.00 in BKN
04:20 57.5 °F 56.1 °F 30.27 in Calm   1.0 mph 95% 0.00 in BKN
04:29 57.4 °F 56.0 °F 30.27 in Calm   1.0 mph 95% 0.00 in BKN
04:39 57.6 °F 56.5 °F 30.27 in Calm   2.0 mph 96% 0.00 in BKN
04:50 57.5 °F 56.4 °F 30.27 in Calm   1.0 mph 96% 0.00 in BKN
04:59 57.3 °F 55.9 °F 30.27 in Calm   1.0 mph 95% 0.00 in BKN
05:09 57.1 °F 56.0 °F 30.26 in Calm   1.0 mph 96% 0.00 in BKN
05:20 57.8 °F 56.7 °F 30.27 in Calm   2.0 mph 96% 0.00 in BKN
05:29 57.8 °F 56.7 °F 30.27 in Calm   1.0 mph 96% 0.00 in BKN
05:49 58.0 °F 56.9 °F 30.27 in Calm   1.0 mph 96% 0.00 in BKN
05:59 57.6 °F 56.5 °F 30.27 in Calm   2.0 mph 96% 0.00 in BKN
06:09 57.9 °F 57.0 °F 30.27 in Calm     97% 0.00 in BKN
06:19 57.7 °F 56.5 °F 30.27 in Calm   1.0 mph 96% 0.00 in BKN
06:30 58.0 °F 57.2 °F 30.27 in Calm   1.0 mph 97% 0.00 in BKN
06:40 58.5 °F 57.7 °F 30.27 in Calm   2.0 mph 97% 0.00 in BKN
06:49 58.4 °F 57.6 °F 30.27 in Calm     97% 0.00 in BKN
07:00 58.3 °F 57.5 °F 30.27 in Calm   1.0 mph 97% 0.00 in BKN
07:10 58.2 °F 57.3 °F 30.27 in Calm   1.0 mph 97% 0.00 in BKN
07:20 58.2 °F 57.4 °F 30.27 in Calm   3.0 mph 97% 0.00 in BKN
07:30 58.4 °F 57.6 °F 30.26 in Calm   2.0 mph 97% 0.00 in BKN
07:39 58.6 °F 57.7 °F 30.27 in Calm   2.0 mph 97% 0.00 in BKN
07:49 58.5 °F 57.7 °F 30.27 in Calm   1.0 mph 97% 0.00 in BKN
07:59 58.6 °F 57.8 °F 30.27 in Calm   2.0 mph 97% 0.00 in BKN
08:09 58.7 °F 57.9 °F 30.27 in Calm   3.0 mph 97% 0.00 in BKN
08:19 59.0 °F 58.2 °F 30.28 in SSW 1.0 mph 3.0 mph 97% 0.00 in BKN
08:30 59.2 °F 58.3 °F 30.28 in Calm   3.0 mph 97% 0.00 in BKN
08:39 59.4 °F 58.5 °F 30.28 in South 1.0 mph 3.0 mph 97% 0.00 in BKN
08:50 59.6 °F 58.7 °F 30.29 in Calm   3.0 mph 97% 0.00 in BKN
08:59 59.6 °F 58.7 °F 30.29 in SSW 1.0 mph 3.0 mph 97% 0.00 in BKN
09:10 59.8 °F 58.9 °F 30.29 in WSW 1.0 mph 3.0 mph 97% 0.00 in BKN
09:19 60.0 °F 59.1 °F 30.29 in SSW 3.0 mph 4.0 mph 97% 0.00 in BKN
09:30 60.3 °F 59.4 °F 30.29 in Calm   4.0 mph 97% 0.00 in BKN
09:40 60.3 °F 59.4 °F 30.30 in SW 1.0 mph 4.0 mph 97% 0.00 in BKN
09:50 60.1 °F 59.0 °F 30.30 in SSW 2.0 mph 9.0 mph 96% 0.00 in BKN
09:59 60.2 °F 59.1 °F 30.29 in SSW 1.0 mph 4.0 mph 96% 0.00 in BKN
10:10 60.6 °F 59.4 °F 30.30 in SW 3.0 mph 7.0 mph 96% 0.00 in BKN
10:20 61.1 °F 59.6 °F 30.29 in SW 1.0 mph 4.0 mph 95% 0.00 in BKN
10:29 61.6 °F 59.8 °F 30.30 in Calm   4.0 mph 94% 0.00 in BKN
10:40 62.0 °F 59.6 °F 30.30 in SW 3.0 mph 7.0 mph 92% 0.00 in BKN
10:49 62.2 °F 59.5 °F 30.30 in SSW 2.0 mph 8.0 mph 91% 0.00 in BKN
10:59 62.8 °F 59.8 °F 30.29 in SSW 1.0 mph 5.0 mph 90% 0.00 in BKN
11:10 63.3 °F 60.0 °F 30.29 in SSW 1.0 mph 4.0 mph 89% 0.00 in BKN
11:19 63.7 °F 59.8 °F 30.29 in SW 1.0 mph 5.0 mph 87% 0.00 in BKN
11:30 64.2 °F 59.9 °F 30.28 in SSW 1.0 mph 4.0 mph 86% 0.00 in BKN
11:40 64.7 °F 60.1 °F 30.28 in Calm   4.0 mph 85% 0.00 in BKN
11:49 65.1 °F 60.1 °F 30.27 in Calm   4.0 mph 84% 0.00 in BKN
11:59 65.6 °F 60.3 °F 30.27 in South 3.0 mph 7.0 mph 83% 0.00 in BKN
12:09 66.0 °F 60.6 °F 30.27 in Calm   7.0 mph 83% 0.00 in SCT
12:19 66.8 °F 61.1 °F 30.26 in South 2.0 mph 7.0 mph 82% 0.00 in SCT
12:29 67.6 °F 61.9 °F 30.25 in Calm   4.0 mph 82% 0.00 in SCT
12:40 67.3 °F 61.3 °F 30.25 in SW 2.0 mph 7.0 mph 81% 0.00 in SCT
12:50 68.2 °F 61.4 °F 30.25 in SSW 3.0 mph 6.0 mph 79% 0.00 in SCT
13:00 69.1 °F 61.6 °F 30.25 in SW 6.0 mph 12.0 mph 77% 0.00 in SCT
13:09 69.3 °F 61.8 °F 30.24 in Calm   10.0 mph 77% 0.00 in SCT
13:19 69.1 °F 61.6 °F 30.24 in WSW 3.0 mph 7.0 mph 77% 0.00 in SCT
13:30 69.3 °F 61.4 °F 30.24 in SW 3.0 mph 8.0 mph 76% 0.00 in SCT
13:39 70.3 °F 62.0 °F 30.23 in SW 2.0 mph 9.0 mph 75% 0.00 in SCT
13:49 70.4 °F 61.3 °F 30.23 in SSW 3.0 mph 12.0 mph 73% 0.00 in SCT
13:59 69.9 °F 61.2 °F 30.23 in South 2.0 mph 9.0 mph 74% 0.00 in SCT
14:09 69.9 °F 61.6 °F 30.23 in South 3.0 mph 10.0 mph 75% 0.00 in SCT
14:20 70.0 °F 61.7 °F 30.22 in South 6.0 mph 12.0 mph 75% 0.00 in SCT
14:29 69.3 °F 61.8 °F 30.22 in South 1.0 mph 8.0 mph 77% 0.00 in SCT
14:40 69.3 °F 62.5 °F 30.22 in SSW 1.0 mph 8.0 mph 79% 0.00 in SCT
14:49 69.8 °F 61.8 °F 30.22 in South 3.0 mph 7.0 mph 76% 0.00 in SCT
14:59 70.0 °F 62.1 °F 30.21 in South 2.0 mph 9.0 mph 76% 0.00 in SCT
15:09 70.8 °F 62.4 °F 30.21 in SSW 3.0 mph 10.0 mph 75% 0.00 in SCT
15:19 71.8 °F 63.1 °F 30.21 in SW 2.0 mph 5.0 mph 74% 0.00 in SCT
15:30 72.4 °F 62.5 °F 30.20 in SW 3.0 mph 6.0 mph 71% 0.00 in SCT
15:40 72.5 °F 62.6 °F 30.21 in SW 3.0 mph 14.0 mph 71% 0.00 in SCT
15:50 72.3 °F 62.4 °F 30.21 in SSW 2.0 mph 12.0 mph 71% 0.00 in SCT
15:59 72.3 °F 62.4 °F 30.20 in SSW 2.0 mph 9.0 mph 71% 0.00 in SCT
16:10 72.0 °F 61.6 °F 30.20 in South 5.0 mph 9.0 mph 70% 0.00 in FEW
16:20 71.1 °F 61.6 °F 30.20 in SW 1.0 mph 10.0 mph 72% 0.00 in FEW
16:30 71.2 °F 61.7 °F 30.20 in SSW 1.0 mph 7.0 mph 72% 0.00 in FEW
16:39 71.1 °F 61.3 °F 30.20 in SSE 5.0 mph 9.0 mph 71% 0.00 in FEW
16:50 70.8 °F 61.3 °F 30.21 in SW 5.0 mph 9.0 mph 72% 0.00 in FEW
17:00 70.2 °F 61.1 °F 30.20 in South 2.0 mph 12.0 mph 73% 0.00 in FEW
17:09 70.1 °F 61.0 °F 30.20 in SSW 5.0 mph 12.0 mph 73% 0.00 in FEW
17:19 69.4 °F 60.8 °F 30.20 in SW 3.0 mph 8.0 mph 74% 0.00 in FEW
17:29 68.4 °F 60.6 °F 30.20 in SW 1.0 mph 7.0 mph 76% 0.00 in FEW
17:39 67.8 °F 60.3 °F 30.20 in South 1.0 mph 5.0 mph 77% 0.00 in FEW
17:49 67.2 °F 60.1 °F 30.20 in SW 1.0 mph 5.0 mph 78% 0.00 in FEW
18:00 66.6 °F 59.9 °F 30.20 in Calm   3.0 mph 79% 0.00 in FEW
18:09 66.3 °F 59.6 °F 30.20 in Calm   7.0 mph 79% 0.00 in FEW
18:19 65.9 °F 59.6 °F 30.20 in SW 2.0 mph 9.0 mph 80% 0.00 in FEW
18:29 65.7 °F 59.3 °F 30.20 in South 2.0 mph 5.0 mph 80% 0.00 in FEW
18:40 65.4 °F 59.4 °F 30.20 in SSE 1.0 mph 4.0 mph 81% 0.00 in FEW
18:50 65.4 °F 59.4 °F 30.20 in SSW 2.0 mph 9.0 mph 81% 0.00 in FEW
18:59 65.4 °F 59.4 °F 30.20 in SW 1.0 mph 10.0 mph 81% 0.00 in FEW
19:10 65.4 °F 59.4 °F 30.21 in SW 1.0 mph 7.0 mph 81% 0.00 in FEW
19:19 65.4 °F 59.4 °F 30.20 in SSW 1.0 mph 8.0 mph 81% 0.00 in FEW
19:29 65.3 °F 59.3 °F 30.20 in SSW 2.0 mph 10.0 mph 81% 0.00 in FEW
19:39 65.1 °F 59.4 °F 30.20 in SSW 3.0 mph 8.0 mph 82% 0.00 in FEW
19:49 64.9 °F 59.6 °F 30.20 in South 2.0 mph 12.0 mph 83% 0.00 in FEW
19:59 64.5 °F 59.6 °F 30.20 in Calm   6.0 mph 84% 0.00 in FEW
20:09 64.2 °F 59.3 °F 30.19 in SW 1.0 mph 5.0 mph 84% 0.00 in FEW
20:19 63.9 °F 59.3 °F 30.19 in SSW 1.0 mph 4.0 mph 85% 0.00 in FEW
20:29 63.7 °F 59.4 °F 30.19 in South 1.0 mph 7.0 mph 86% 0.00 in FEW
20:39 63.5 °F 59.2 °F 30.20 in SSW 2.0 mph 5.0 mph 86% 0.00 in FEW
20:49 63.4 °F 59.5 °F 30.20 in South 2.0 mph 5.0 mph 87% 0.00 in FEW
20:59 63.5 °F 59.2 °F 30.20 in SSW 2.0 mph 7.0 mph 86% 0.00 in FEW
21:09 63.4 °F 59.5 °F 30.20 in South 2.0 mph 5.0 mph 87% 0.00 in FEW
21:19 63.3 °F 59.4 °F 30.20 in SW 2.0 mph 5.0 mph 87% 0.00 in FEW
21:30 63.1 °F 59.1 °F 30.20 in Calm   4.0 mph 87% 0.00 in FEW
21:39 62.6 °F 59.0 °F 30.21 in Calm   2.0 mph 88% 0.00 in FEW
21:50 62.4 °F 59.1 °F 30.21 in Calm   3.0 mph 89% 0.00 in FEW
21:59 62.2 °F 59.2 °F 30.20 in SE 1.0 mph 3.0 mph 90% 0.00 in FEW
22:09 62.0 °F 59.0 °F 30.20 in Calm   2.0 mph 90% 0.00 in FEW
22:19 61.9 °F 59.0 °F 30.20 in SSE 1.0 mph 3.0 mph 90% 0.00 in FEW
22:29 62.0 °F 59.1 °F 30.20 in South 1.0 mph 4.0 mph 90% 0.00 in FEW
22:39 61.9 °F 59.2 °F 30.20 in South 1.0 mph 4.0 mph 91% 0.00 in FEW
22:50 61.8 °F 59.1 °F 30.20 in Calm   3.0 mph 91% 0.00 in FEW
23:00 61.6 °F 58.9 °F 30.19 in Calm   2.0 mph 91% 0.00 in FEW
23:09 61.4 °F 59.1 °F 30.19 in SSW 1.0 mph 3.0 mph 92% 0.00 in CLR
23:19 61.2 °F 58.9 °F 30.19 in Calm   3.0 mph 92% 0.00 in CLR
23:30 61.1 °F 59.1 °F 30.18 in Calm   4.0 mph 93% 0.00 in CLR
23:39 60.8 °F 58.8 °F 30.18 in Calm   3.0 mph 93% 0.00 in CLR
23:49 60.8 °F 58.8 °F 30.18 in Calm   2.0 mph 93% 0.00 in CLR
23:59 60.7 °F 58.7 °F 30.18 in Calm   1.0 mph 93% 0.00 in CLR
TarryTown NY Weather
Compliments of Weather Underground - 1.75 mb